Terminal Aerodrome Forecast
Issued by NWS

Home | Current Version | Previous Version | Text Only | Print | Product List | Glossary On
Versions: 1 2 3 4 5 6 7 8 9 10 11 12 13 14 15
000
FTUS46 KMTR 072340
TAFSNS
TAF
KSNS 072340Z 0800/0824 30016G22KT P6SM FEW250
     FM080200 29012KT P6SM FEW250
      TEMPO 0805/0808 BKN009
     FM080800 29007KT P6SM OVC009
     FM081800 26017KT P6SM FEW250=

USA.gov is the U.S. government's official web portal to all federal, state and local government web resources and services.